Time;durP1;ratioP1;P1;durP2;ratioP2;P2;SDS_P1;SDS_P2;PMS_P1;PMS_P2;Temp;Humidity;BMP_temperature;BMP_pressure;BME280_temperature;BME280_humidity;BME280_pressure;Samples;Min_cycle;Max_cycle;Signal;HPM_P1;HPM_P2
2021/04/22 00:00:36;;;;;;;10.30;5.97;;;10.90;90.90;;;;;;1736036;83;21152;-69
2021/04/22 00:03:05;;;;;;;10.25;6.28;;;10.90;91.80;;;;;;1735863;82;21551;-69
2021/04/22 00:05:38;;;;;;;10.68;5.95;;;10.90;91.20;;;;;;1735576;82;21330;-71
2021/04/22 00:08:09;;;;;;;9.00;5.90;;;10.90;92.30;;;;;;1735768;83;21172;-71
2021/04/22 00:10:50;;;;;;;10.75;6.05;;;10.80;92.00;;;;;;1735903;83;21568;-71
2021/04/22 00:13:28;;;;;;;10.82;6.17;;;10.80;92.50;;;;;;1736075;83;21148;-71
2021/04/22 00:16:00;;;;;;;11.03;6.03;;;10.80;92.40;;;;;;1735851;82;21289;-71
2021/04/22 00:18:29;;;;;;;9.75;6.12;;;10.70;93.50;;;;;;1736255;83;21122;-71
2021/04/22 00:20:57;;;;;;;11.12;6.50;;;10.70;94.00;;;;;;1735881;82;21287;-71
2021/04/22 00:23:25;;;;;;;9.70;5.70;;;10.60;94.20;;;;;;1735953;83;21583;-70
2021/04/22 00:25:53;;;;;;;11.05;6.28;;;10.60;94.30;;;;;;1735875;82;21311;-70
2021/04/22 00:28:22;;;;;;;10.00;5.30;;;10.60;95.70;;;;;;1735719;82;21593;-70
2021/04/22 00:30:50;;;;;;;9.05;5.62;;;10.70;95.20;;;;;;1735892;82;21757;-70
2021/04/22 00:33:21;;;;;;;10.55;5.50;;;10.80;95.30;;;;;;1735821;82;21150;-70
2021/04/22 00:35:51;;;;;;;8.35;4.95;;;10.90;95.70;;;;;;1736181;83;21169;-70
2021/04/22 00:38:19;;;;;;;8.55;5.28;;;10.90;93.60;;;;;;1736141;82;21158;-69
2021/04/22 00:40:48;;;;;;;7.33;5.08;;;11.00;93.60;;;;;;1735935;82;21303;-70
2021/04/22 00:43:19;;;;;;;8.20;5.50;;;11.10;92.50;;;;;;1736019;82;21563;-70
2021/04/22 00:45:49;;;;;;;7.95;5.30;;;11.10;92.20;;;;;;1735923;83;21283;-70
2021/04/22 00:48:21;;;;;;;7.75;5.05;;;11.00;92.00;;;;;;1735880;83;21291;-68
2021/04/22 00:50:53;;;;;;;9.45;5.83;;;11.10;91.00;;;;;;1735913;83;21145;-70
2021/04/22 00:53:22;;;;;;;7.50;5.45;;;11.10;91.10;;;;;;1735726;83;21251;-69
2021/04/22 00:55:50;;;;;;;8.58;5.70;;;11.10;91.50;;;;;;1735923;82;21125;-70
2021/04/22 00:58:18;;;;;;;10.40;5.37;;;11.20;91.60;;;;;;1736375;83;21565;-70
2021/04/22 01:00:54;;;;;;;10.38;6.10;;;11.20;91.70;;;;;;1735938;82;21296;-70
2021/04/22 01:03:23;;;;;;;8.58;5.30;;;11.10;91.70;;;;;;1736232;83;21106;-69
2021/04/22 01:05:59;;;;;;;9.40;5.83;;;11.20;91.60;;;;;;1735836;82;21299;-69
2021/04/22 01:08:27;;;;;;;9.73;6.03;;;11.10;91.60;;;;;;1736120;82;21137;-70
2021/04/22 01:10:55;;;;;;;11.80;5.58;;;11.00;92.30;;;;;;1736278;83;21169;-70
2021/04/22 01:13:24;;;;;;;9.18;5.72;;;10.90;93.30;;;;;;1736095;83;21177;-70
2021/04/22 01:15:51;;;;;;;10.23;6.15;;;10.80;94.00;;;;;;1735912;83;21145;-70
2021/04/22 01:18:19;;;;;;;9.35;5.95;;;10.80;94.70;;;;;;1736090;82;21165;-70
2021/04/22 01:20:51;;;;;;;10.70;6.10;;;10.80;94.80;;;;;;1736061;83;21153;-70
2021/04/22 01:23:20;;;;;;;10.72;6.37;;;10.80;95.00;;;;;;1735890;83;21300;-71
2021/04/22 01:25:51;;;;;;;11.03;6.53;;;10.70;95.40;;;;;;1736080;82;21177;-71
2021/04/22 01:28:23;;;;;;;9.33;6.12;;;10.70;95.00;;;;;;1735915;82;21177;-71
2021/04/22 01:30:56;;;;;;;9.78;6.35;;;10.70;95.90;;;;;;1735696;82;21565;-71
2021/04/22 01:33:28;;;;;;;11.50;6.50;;;10.60;95.20;;;;;;1736001;82;21146;-71
2021/04/22 01:35:59;;;;;;;14.00;6.00;;;10.50;95.40;;;;;;1735990;82;21234;-70
2021/04/22 01:38:30;;;;;;;9.50;6.55;;;10.50;95.90;;;;;;1736016;83;21164;-71
2021/04/22 01:40:59;;;;;;;10.75;6.53;;;10.40;96.30;;;;;;1735809;82;21312;-71
2021/04/22 01:43:29;;;;;;;10.72;6.70;;;10.40;96.20;;;;;;1736084;82;21153;-70
2021/04/22 01:45:59;;;;;;;9.93;6.33;;;10.30;96.30;;;;;;1736075;82;21153;-70
2021/04/22 01:48:28;;;;;;;11.08;6.53;;;10.30;96.40;;;;;;1735825;83;21612;-70
2021/04/22 01:50:56;;;;;;;10.50;6.67;;;10.20;97.20;;;;;;1736050;82;21169;-70
2021/04/22 01:53:24;;;;;;;10.72;7.05;;;10.20;97.90;;;;;;1735859;83;21117;-71
2021/04/22 01:55:52;;;;;;;11.28;6.90;;;10.20;97.70;;;;;;1735884;82;21303;-71
2021/04/22 01:58:24;;;;;;;15.95;6.90;;;10.10;97.60;;;;;;1735959;82;21322;-71
2021/04/22 02:00:56;;;;;;;11.93;6.33;;;10.10;98.40;;;;;;1735926;83;21144;-71
2021/04/22 02:03:28;;;;;;;11.90;6.15;;;10.00;98.60;;;;;;1735966;82;21304;-71
2021/04/22 02:05:56;;;;;;;10.00;6.25;;;10.00;98.80;;;;;;1735833;81;21311;-71
2021/04/22 02:08:23;;;;;;;10.93;6.28;;;10.00;98.90;;;;;;1736121;83;21184;-70
2021/04/22 02:10:51;;;;;;;13.10;6.83;;;10.10;98.80;;;;;;1736043;83;21117;-70
2021/04/22 02:13:21;;;;;;;9.38;6.62;;;10.10;97.90;;;;;;1735834;83;21279;-71
2021/04/22 02:15:50;;;;;;;12.23;6.62;;;10.10;97.20;;;;;;1735876;82;21726;-71
2021/04/22 02:18:18;;;;;;;10.48;6.87;;;10.10;97.20;;;;;;1736127;82;21144;-70
2021/04/22 02:20:49;;;;;;;12.53;7.35;;;10.00;97.00;;;;;;1736032;82;21121;-71
2021/04/22 02:23:21;;;;;;;11.65;7.42;;;10.00;96.90;;;;;;1736075;82;21158;-72
2021/04/22 02:25:48;;;;;;;17.37;7.28;;;10.00;96.90;;;;;;1735905;82;21292;-71
2021/04/22 02:28:17;;;;;;;15.58;8.00;;;9.90;96.90;;;;;;1735818;82;21299;-71
2021/04/22 02:30:46;;;;;;;12.40;7.95;;;9.80;97.10;;;;;;1735865;82;21303;-71
2021/04/22 02:33:17;;;;;;;13.08;7.97;;;9.70;97.80;;;;;;1735893;83;21614;-70
2021/04/22 02:35:49;;;;;;;12.80;7.33;;;9.70;97.90;;;;;;1735863;83;21129;-70
2021/04/22 02:38:18;;;;;;;13.80;8.50;;;9.60;98.20;;;;;;1736012;83;21141;-70
2021/04/22 02:40:48;;;;;;;14.10;8.73;;;9.60;97.80;;;;;;1736044;83;21161;-70
2021/04/22 02:43:20;;;;;;;13.53;8.05;;;9.50;98.20;;;;;;1735999;83;21578;-70
2021/04/22 02:45:52;;;;;;;15.08;8.70;;;9.40;98.40;;;;;;1735850;83;21315;-69
2021/04/22 02:48:22;;;;;;;14.63;8.33;;;9.40;99.10;;;;;;1735972;83;21161;-69
2021/04/22 02:50:54;;;;;;;17.07;8.73;;;9.40;99.30;;;;;;1735858;82;21289;-69
2021/04/22 02:53:24;;;;;;;15.00;8.88;;;9.30;99.30;;;;;;1736194;83;21189;-70
2021/04/22 02:55:52;;;;;;;16.60;8.68;;;9.30;99.90;;;;;;1735827;82;21314;-69
2021/04/22 02:58:26;;;;;;;14.65;8.75;;;9.40;99.80;;;;;;1735914;82;21154;-69
2021/04/22 03:00:55;;;;;;;15.43;9.10;;;9.40;98.80;;;;;;1736086;83;21165;-70
2021/04/22 03:03:24;;;;;;;14.95;9.08;;;9.30;98.80;;;;;;1735857;82;21157;-70
2021/04/22 03:05:56;;;;;;;15.30;9.23;;;9.20;99.50;;;;;;1740783;82;21192;-69
2021/04/22 03:08:25;;;;;;;17.20;9.48;;;9.20;99.80;;;;;;1753269;82;21177;-68
2021/04/22 03:10:53;;;;;;;15.95;9.40;;;9.20;99.70;;;;;;1753684;82;21580;-69
2021/04/22 03:13:21;;;;;;;14.38;9.25;;;9.20;99.90;;;;;;1753593;82;21122;-68
2021/04/22 03:15:49;;;;;;;18.65;10.88;;;9.10;99.90;;;;;;1753780;82;21164;-69
2021/04/22 03:18:17;;;;;;;17.92;10.43;;;9.20;99.60;;;;;;1753883;82;21157;-70
2021/04/22 03:20:45;;;;;;;17.12;9.58;;;9.10;99.90;;;;;;1753488;81;21154;-69
2021/04/22 03:23:13;;;;;;;16.55;8.95;;;9.10;99.50;;;;;;1753490;81;21172;-69
2021/04/22 03:25:40;;;;;;;14.30;8.93;;;9.20;99.20;;;;;;1753576;82;21599;-70
2021/04/22 03:28:08;;;;;;;14.23;8.40;;;9.10;99.90;;;;;;1753447;82;21245;-69
2021/04/22 03:30:36;;;;;;;15.23;8.45;;;9.20;99.90;;;;;;1753533;82;21622;-69
2021/04/22 03:33:04;;;;;;;14.75;7.90;;;9.30;99.10;;;;;;1753470;81;21161;-70
2021/04/22 03:35:32;;;;;;;13.93;8.98;;;9.30;99.60;;;;;;1753487;81;21173;-69
2021/04/22 03:37:59;;;;;;;14.18;8.25;;;9.30;99.00;;;;;;1753759;82;21176;-69
2021/04/22 03:40:28;;;;;;;14.60;8.60;;;9.30;98.90;;;;;;1753376;82;21118;-69
2021/04/22 03:42:56;;;;;;;18.30;9.00;;;9.30;99.60;;;;;;1753492;82;21150;-70
2021/04/22 03:45:25;;;;;;;17.17;9.28;;;9.40;99.80;;;;;;1753606;82;21584;-71
2021/04/22 03:47:53;;;;;;;14.45;8.98;;;9.50;99.10;;;;;;1753431;81;21169;-71
2021/04/22 03:50:22;;;;;;;15.90;9.30;;;9.40;99.20;;;;;;1753741;82;21592;-71
2021/04/22 03:52:50;;;;;;;14.47;8.73;;;9.40;99.00;;;;;;1753456;82;21180;-71
2021/04/22 03:55:19;;;;;;;16.82;10.25;;;9.50;98.80;;;;;;1753916;81;21161;-70
2021/04/22 03:57:48;;;;;;;17.82;9.90;;;9.50;98.80;;;;;;1753858;82;21174;-69
2021/04/22 04:00:20;;;;;;;16.32;9.35;;;9.50;98.40;;;;;;1753753;82;21157;-70
2021/04/22 04:02:48;;;;;;;18.12;9.85;;;9.40;98.90;;;;;;1753451;81;21106;-70
2021/04/22 04:05:17;;;;;;;16.97;10.25;;;9.30;99.10;;;;;;1753483;82;21190;-70
2021/04/22 04:07:45;;;;;;;16.50;10.35;;;9.30;99.40;;;;;;1746152;82;21611;-70
2021/04/22 04:10:13;;;;;;;17.12;10.35;;;9.30;99.70;;;;;;1735918;83;21292;-69
2021/04/22 04:12:41;;;;;;;19.60;11.78;;;9.20;99.90;;;;;;1735949;82;21319;-69
2021/04/22 04:15:10;;;;;;;19.32;11.28;;;9.20;99.90;;;;;;1735965;82;21303;-69
2021/04/22 04:17:38;;;;;;;19.12;11.80;;;9.20;99.90;;;;;;1735855;82;21766;-69
2021/04/22 04:20:10;;;;;;;22.52;11.60;;;9.20;99.90;;;;;;1721710;83;21145;-69
2021/04/22 04:22:39;;;;;;;23.35;13.00;;;9.20;99.90;;;;;;1736027;83;21109;-69
2021/04/22 04:25:10;;;;;;;18.87;12.07;;;9.20;99.90;;;;;;1735927;83;21307;-68
2021/04/22 04:27:38;;;;;;;22.05;11.95;;;9.30;99.90;;;;;;1736129;83;21160;-69
2021/04/22 04:30:10;;;;;;;23.15;12.75;;;9.30;99.90;;;;;;1734748;83;21745;-69
2021/04/22 04:32:39;;;;;;;21.65;12.50;;;9.40;99.90;;;;;;1735966;83;21283;-69
2021/04/22 04:35:09;;;;;;;22.32;13.03;;;9.40;99.90;;;;;;1735990;82;21586;-70
2021/04/22 04:37:38;;;;;;;19.98;12.47;;;9.40;99.90;;;;;;1736018;83;21169;-69
2021/04/22 04:40:10;;;;;;;30.23;17.02;;;9.50;99.90;;;;;;1735890;83;21319;-70
2021/04/22 04:42:42;;;;;;;20.95;12.45;;;9.40;99.90;;;;;;1736105;82;21120;-72
2021/04/22 04:45:15;;;;;;;20.65;12.43;;;9.40;99.90;;;;;;1734122;83;21275;-71
2021/04/22 04:47:44;;;;;;;21.15;12.20;;;9.50;99.90;;;;;;1728786;83;21144;-71
2021/04/22 04:50:15;;;;;;;21.45;12.20;;;9.50;99.90;;;;;;1731783;82;21144;-73
2021/04/22 04:52:43;;;;;;;22.00;12.50;;;9.60;99.90;;;;;;1728407;83;21144;-71
2021/04/22 04:55:13;;;;;;;23.62;12.55;;;9.60;99.90;;;;;;1731881;82;21137;-72
2021/04/22 04:57:43;;;;;;;26.30;15.78;;;9.80;99.90;;;;;;1728100;83;21294;-72
2021/04/22 05:00:15;;;;;;;22.55;13.18;;;9.90;99.50;;;;;;1732127;83;21157;-72
2021/04/22 05:02:45;;;;;;;20.88;13.28;;;10.00;98.70;;;;;;1728625;83;21121;-71
2021/04/22 05:05:15;;;;;;;21.62;13.28;;;10.10;98.90;;;;;;1731767;82;21133;-71
2021/04/22 05:07:43;;;;;;;24.15;12.63;;;10.20;99.50;;;;;;1729129;81;21114;-72
2021/04/22 05:10:12;;;;;;;23.12;13.62;;;10.40;98.00;;;;;;1742985;82;21121;-72
2021/04/22 05:12:40;;;;;;;22.20;13.75;;;10.50;96.50;;;;;;1738445;82;21113;-72
2021/04/22 05:15:09;;;;;;;22.50;14.50;;;10.70;94.60;;;;;;1740522;82;21160;-70
2021/04/22 05:17:37;;;;;;;22.27;12.50;;;10.90;94.60;;;;;;1733351;81;21184;-72
2021/04/22 05:20:07;;;;;;;20.82;12.90;;;10.90;93.20;;;;;;1733573;82;21160;-71
2021/04/22 05:22:35;;;;;;;20.62;12.47;;;11.00;92.80;;;;;;1739224;82;21574;-71
2021/04/22 05:25:05;;;;;;;22.62;12.90;;;11.10;92.10;;;;;;1734674;82;21148;-78
2021/04/22 05:27:32;;;;;;;24.87;14.07;;;11.20;91.30;;;;;;1733386;82;21196;-80
2021/04/22 05:30:00;;;;;;;22.22;12.78;;;11.30;91.10;;;;;;1730979;81;21204;-81
2021/04/22 05:32:28;;;;;;;22.00;13.00;;;11.30;90.10;;;;;;1730792;83;21180;-78
2021/04/22 05:34:56;;;;;;;23.30;13.53;;;11.30;90.70;;;;;;1732671;83;21184;-77
2021/04/22 05:37:26;;;;;;;22.82;13.65;;;11.40;91.40;;;;;;1734654;82;21598;-75
2021/04/22 05:39:53;;;;;;;19.75;12.40;;;11.50;90.40;;;;;;1743240;82;21611;-74
2021/04/22 05:42:21;;;;;;;21.00;13.70;;;11.50;89.40;;;;;;1744294;82;21180;-73
2021/04/22 05:44:48;;;;;;;25.20;14.47;;;11.50;89.30;;;;;;1742582;82;21160;-74
2021/04/22 05:47:16;;;;;;;22.40;13.00;;;11.60;89.10;;;;;;1742810;81;21129;-75
2021/04/22 05:49:44;;;;;;;19.52;13.05;;;11.60;88.20;;;;;;1744294;82;21129;-73
2021/04/22 05:52:11;;;;;;;22.65;14.45;;;11.60;88.90;;;;;;1742917;82;21603;-75
2021/04/22 05:54:39;;;;;;;22.58;14.95;;;11.70;88.40;;;;;;1745075;81;21118;-79
2021/04/22 05:57:09;;;;;;;24.87;14.75;;;11.70;87.40;;;;;;1753345;82;21596;-77
2021/04/22 05:59:37;;;;;;;34.35;17.95;;;11.80;86.80;;;;;;1753609;82;21599;-77
2021/04/22 06:02:04;;;;;;;24.55;14.90;;;11.80;88.00;;;;;;1745456;82;21574;-72
2021/04/22 06:04:32;;;;;;;22.32;14.03;;;11.90;87.30;;;;;;1750600;82;21144;-74
2021/04/22 06:07:00;;;;;;;26.25;15.20;;;12.00;87.20;;;;;;1743087;81;21591;-69
2021/04/22 06:09:27;;;;;;;23.07;14.03;;;12.00;85.90;;;;;;1744277;82;21551;-70
2021/04/22 06:11:55;;;;;;;25.32;14.95;;;12.10;85.60;;;;;;1738924;82;21155;-70
2021/04/22 06:14:23;;;;;;;21.57;13.80;;;12.20;85.90;;;;;;1742933;82;21162;-70
2021/04/22 06:16:50;;;;;;;24.47;14.30;;;12.20;84.60;;;;;;1744304;82;21149;-70
2021/04/22 06:19:18;;;;;;;23.85;13.62;;;12.40;83.70;;;;;;1742973;82;21113;-71
2021/04/22 06:21:46;;;;;;;24.43;14.18;;;12.50;83.00;;;;;;1742456;82;21132;-71
2021/04/22 06:24:13;;;;;;;22.80;14.35;;;12.50;82.50;;;;;;1737014;81;21593;-70
2021/04/22 06:26:40;;;;;;;24.65;13.05;;;12.40;84.50;;;;;;1729797;83;21159;-68
2021/04/22 06:29:10;;;;;;;23.18;14.15;;;12.60;82.70;;;;;;1703580;83;21564;-73
2021/04/22 06:31:38;;;;;;;23.92;13.20;;;12.60;82.50;;;;;;1729634;83;21297;-70
2021/04/22 06:34:07;;;;;;;20.30;13.00;;;12.60;82.10;;;;;;1733490;83;21173;-71
2021/04/22 06:36:34;;;;;;;22.52;13.20;;;12.70;81.50;;;;;;1733284;82;21567;-71
2021/04/22 06:39:03;;;;;;;22.00;13.35;;;12.70;81.30;;;;;;1733447;82;21126;-71
2021/04/22 06:41:31;;;;;;;20.40;12.15;;;12.80;82.30;;;;;;1733289;82;21185;-71
2021/04/22 06:43:58;;;;;;;23.50;12.58;;;12.90;80.20;;;;;;1733417;82;21149;-71
2021/04/22 06:46:26;;;;;;;20.52;12.15;;;12.90;81.40;;;;;;1733419;82;21152;-70
2021/04/22 06:48:54;;;;;;;21.93;11.57;;;13.00;78.80;;;;;;1733198;83;21643;-70
2021/04/22 06:51:23;;;;;;;21.07;12.43;;;13.10;80.20;;;;;;1733101;83;21168;-70
2021/04/22 06:53:51;;;;;;;18.65;11.80;;;13.20;78.80;;;;;;1733197;82;21144;-71
2021/04/22 06:56:19;;;;;;;18.25;11.33;;;13.30;78.40;;;;;;1733070;82;21204;-68
2021/04/22 06:58:47;;;;;;;20.92;13.30;;;13.40;76.90;;;;;;1733286;82;21584;-69
2021/04/22 07:01:15;;;;;;;20.80;12.43;;;13.40;77.30;;;;;;1733098;82;21157;-71
2021/04/22 07:03:43;;;;;;;19.87;11.73;;;13.40;78.80;;;;;;1733390;83;21597;-70
2021/04/22 07:06:12;;;;;;;20.45;11.90;;;13.40;77.10;;;;;;1733257;81;21238;-71
2021/04/22 07:08:41;;;;;;;20.57;12.63;;;13.40;77.30;;;;;;1730901;81;21181;-70
2021/04/22 07:11:09;;;;;;;22.07;13.13;;;13.50;78.20;;;;;;1718754;83;21285;-69
2021/04/22 07:13:36;;;;;;;21.95;12.43;;;13.50;77.90;;;;;;1715422;83;21143;-70
2021/04/22 07:16:04;;;;;;;19.55;12.00;;;13.50;78.30;;;;;;1715913;83;21635;-69
2021/04/22 07:18:32;;;;;;;18.87;12.15;;;13.60;78.40;;;;;;1716256;83;21147;-70
2021/04/22 07:21:00;;;;;;;22.82;12.35;;;13.80;77.70;;;;;;1712212;83;21126;-69
2021/04/22 07:23:28;;;;;;;20.65;11.97;;;13.90;77.00;;;;;;1715782;83;21579;-71
2021/04/22 07:25:56;;;;;;;21.42;13.22;;;14.00;79.20;;;;;;1715523;83;21186;-72
2021/04/22 07:28:23;;;;;;;24.27;12.60;;;14.10;76.40;;;;;;1714855;83;21168;-72
2021/04/22 07:30:53;;;;;;;19.25;12.30;;;14.10;76.10;;;;;;1711543;84;21205;-76
2021/04/22 07:33:21;;;;;;;20.02;12.28;;;14.30;76.60;;;;;;1717113;83;21130;-77
2021/04/22 07:35:49;;;;;;;21.93;13.13;;;14.50;76.80;;;;;;1722424;82;21158;-77
2021/04/22 07:38:17;;;;;;;21.75;13.22;;;14.60;76.30;;;;;;1722964;83;21276;-76
2021/04/22 07:40:46;;;;;;;19.67;12.75;;;14.80;74.90;;;;;;1723134;83;21154;-72
2021/04/22 07:43:15;;;;;;;19.30;13.70;;;15.00;74.40;;;;;;1722607;83;21303;-74
2021/04/22 07:45:45;;;;;;;19.17;11.68;;;15.20;73.80;;;;;;1722432;82;21377;-75
2021/04/22 07:48:14;;;;;;;24.10;13.53;;;15.40;73.20;;;;;;1722622;83;21295;-72
2021/04/22 07:50:42;;;;;;;23.45;14.05;;;15.50;72.50;;;;;;1716266;83;21161;-76
2021/04/22 07:53:10;;;;;;;19.10;12.50;;;15.80;71.50;;;;;;1715855;83;21584;-72
2021/04/22 07:55:44;;;;;;;23.35;14.75;;;16.00;70.10;;;;;;1720962;83;21149;-73
2021/04/22 07:58:15;;;;;;;20.80;13.43;;;16.30;69.80;;;;;;1721755;83;21572;-74
2021/04/22 08:00:47;;;;;;;20.90;13.55;;;16.70;68.00;;;;;;1718451;83;21133;-73
2021/04/22 08:03:17;;;;;;;19.95;13.35;;;17.10;66.10;;;;;;1720543;83;21141;-71
2021/04/22 08:05:49;;;;;;;23.00;11.83;;;17.60;64.70;;;;;;1716184;83;21180;-69
2021/04/22 08:08:16;;;;;;;22.82;12.47;;;17.90;61.90;;;;;;1716108;83;21589;-80
2021/04/22 08:10:46;;;;;;;14.83;11.00;;;18.10;60.20;;;;;;1715919;82;21169;-72
2021/04/22 08:13:17;;;;;;;17.12;11.30;;;18.00;61.10;;;;;;1717437;83;21188;-72
2021/04/22 08:15:50;;;;;;;17.80;12.18;;;17.80;60.50;;;;;;1716432;83;21177;-73
2021/04/22 08:18:19;;;;;;;23.60;11.38;;;17.70;61.20;;;;;;1720439;83;21596;-74
2021/04/22 08:20:48;;;;;;;18.48;11.12;;;17.60;63.00;;;;;;1721275;82;21129;-78
2021/04/22 08:23:16;;;;;;;22.45;11.40;;;17.50;62.60;;;;;;1722716;83;21327;-76
2021/04/22 08:25:48;;;;;;;17.87;11.43;;;17.50;62.40;;;;;;1722095;83;21118;-75
2021/04/22 08:28:20;;;;;;;20.68;12.25;;;17.40;62.60;;;;;;1716527;83;21144;-73
2021/04/22 08:31:02;;;;;;;18.82;11.28;;;17.30;62.20;;;;;;1720309;83;21248;-77
2021/04/22 08:33:34;;;;;;;16.73;11.78;;;17.30;63.70;;;;;;1722807;83;21260;-78
2021/04/22 08:36:04;;;;;;;19.40;12.05;;;17.10;64.20;;;;;;1718811;83;21250;-79
2021/04/22 08:38:33;;;;;;;21.73;12.60;;;17.00;64.50;;;;;;1713812;83;21169;-78
2021/04/22 08:41:03;;;;;;;18.98;13.05;;;16.80;66.00;;;;;;1719655;83;21140;-77
2021/04/22 08:43:35;;;;;;;22.85;13.15;;;16.70;65.30;;;;;;1712364;83;21656;-77
2021/04/22 08:46:06;;;;;;;22.25;13.55;;;16.60;65.80;;;;;;1716390;83;21180;-75
2021/04/22 08:48:36;;;;;;;21.15;13.85;;;16.50;66.30;;;;;;1716571;83;21178;-73
2021/04/22 08:51:06;;;;;;;22.02;13.65;;;16.50;67.10;;;;;;1721292;82;21207;-72
2021/04/22 08:53:39;;;;;;;20.68;13.38;;;16.40;67.10;;;;;;1721369;83;21611;-72
2021/04/22 08:56:08;;;;;;;22.32;13.22;;;16.30;68.10;;;;;;1716612;83;21145;-72
2021/04/22 08:58:36;;;;;;;25.45;13.05;;;16.30;68.30;;;;;;1721322;83;21168;-72
2021/04/22 09:01:10;;;;;;;21.10;13.20;;;16.30;68.50;;;;;;1718725;82;21153;-70
2021/04/22 09:03:41;;;;;;;22.70;14.28;;;16.20;68.30;;;;;;1716203;83;21137;-69
2021/04/22 09:06:11;;;;;;;25.12;14.30;;;16.20;68.60;;;;;;1717898;82;21141;-70
2021/04/22 09:08:50;;;;;;;20.45;13.10;;;16.20;68.80;;;;;;1712943;83;21199;-81
2021/04/22 09:11:22;;;;;;;22.35;13.98;;;16.10;69.10;;;;;;1712367;83;21559;-73
2021/04/22 09:13:52;;;;;;;21.23;12.37;;;16.00;68.40;;;;;;1716033;83;21112;-73
2021/04/22 09:16:28;;;;;;;19.40;12.98;;;16.00;68.90;;;;;;1715373;83;21203;-68
2021/04/22 09:19:07;;;;;;;19.57;12.43;;;16.00;68.90;;;;;;1716991;83;21565;-69
2021/04/22 09:21:40;;;;;;;18.30;12.13;;;16.10;68.70;;;;;;1714017;83;21129;-70
2021/04/22 09:24:14;;;;;;;20.52;12.82;;;16.10;68.30;;;;;;1711089;83;21116;-70
2021/04/22 09:26:50;;;;;;;20.97;13.58;;;16.10;68.80;;;;;;1716093;83;21145;-70
2021/04/22 09:29:45;;;;;;;25.43;15.48;;;16.10;67.00;;;;;;1713648;83;21142;-70
2021/04/22 09:32:27;;;;;;;20.23;12.37;;;16.30;67.40;;;;;;1712547;83;21173;-72
2021/04/22 09:35:03;;;;;;;19.82;13.08;;;16.50;65.90;;;;;;1713575;83;21137;-69
2021/04/22 09:37:48;;;;;;;20.97;13.08;;;16.50;64.60;;;;;;1717327;83;21112;-72
2021/04/22 09:40:35;;;;;;;22.55;13.78;;;16.60;64.40;;;;;;1716461;83;21140;-71
2021/04/22 09:43:07;;;;;;;23.18;13.62;;;16.60;65.40;;;;;;1717030;83;21557;-69
2021/04/22 09:45:35;;;;;;;20.12;13.58;;;16.80;66.70;;;;;;1716971;83;21129;-71
2021/04/22 09:48:30;;;;;;;17.95;12.55;;;16.80;64.70;;;;;;1718468;83;21185;-74
2021/04/22 09:51:00;;;;;;;21.23;12.60;;;16.80;61.70;;;;;;1720882;83;21138;-77
2021/04/22 09:53:28;;;;;;;20.75;11.65;;;16.80;60.30;;;;;;1721289;83;21136;-77
2021/04/22 09:56:02;;;;;;;20.77;12.18;;;16.70;61.80;;;;;;1721050;83;21584;-79
2021/04/22 09:58:30;;;;;;;19.17;12.40;;;16.70;64.60;;;;;;1718886;83;21603;-77
2021/04/22 10:00:58;;;;;;;21.52;12.85;;;16.70;65.90;;;;;;1721006;83;21173;-73
2021/04/22 10:03:25;;;;;;;19.20;12.20;;;16.70;66.30;;;;;;1721329;83;21158;-72
2021/04/22 10:05:59;;;;;;;19.05;11.90;;;16.60;67.10;;;;;;1721327;83;21161;-70
2021/04/22 10:08:28;;;;;;;21.37;11.60;;;16.60;66.50;;;;;;1718121;83;21110;-70
2021/04/22 10:11:05;;;;;;;17.23;12.07;;;16.50;66.30;;;;;;1736597;82;21547;-69
2021/04/22 10:13:45;;;;;;;;;;;16.50;66.80;;;;;;1733469;82;21142;-72
2021/04/22 10:16:13;;;;;;;21.52;12.63;;;16.60;67.40;;;;;;1726941;82;20144;-72
2021/04/22 10:18:44;;;;;;;16.32;10.98;;;16.60;66.80;;;;;;1731732;82;21137;-72
2021/04/22 10:21:15;;;;;;;17.27;11.93;;;16.50;68.00;;;;;;1727501;82;21134;-70
2021/04/22 10:23:43;;;;;;;17.12;11.33;;;16.50;70.20;;;;;;1703946;83;21158;-71
2021/04/22 10:26:21;;;;;;;17.92;12.15;;;16.40;70.10;;;;;;1733312;83;21198;-74
2021/04/22 10:28:48;;;;;;;;;;;16.40;70.50;;;;;;1735685;82;21133;-77
2021/04/22 10:31:16;;;;;;;16.82;10.90;;;16.40;72.00;;;;;;1705907;82;20159;-79
2021/04/22 10:33:45;;;;;;;19.37;12.00;;;16.40;72.60;;;;;;1737365;82;21162;-77
2021/04/22 10:36:20;;;;;;;17.50;10.63;;;16.50;71.10;;;;;;1743069;82;21169;-77
2021/04/22 10:38:53;;;;;;;15.63;9.95;;;16.60;68.90;;;;;;1729241;83;21154;-76
2021/04/22 10:41:22;;;;;;;17.75;10.58;;;16.50;66.20;;;;;;1728070;82;21361;-76
2021/04/22 10:43:51;;;;;;;15.05;10.88;;;16.60;68.00;;;;;;1740561;82;21145;-77
2021/04/22 10:46:20;;;;;;;16.40;10.48;;;16.50;66.80;;;;;;1744383;81;21177;-75
2021/04/22 10:48:48;;;;;;;15.72;9.73;;;16.50;67.40;;;;;;1736449;82;21133;-79
2021/04/22 10:51:17;;;;;;;17.15;10.40;;;16.60;67.60;;;;;;1749349;82;21158;-83
2021/04/22 10:53:46;;;;;;;18.37;9.90;;;16.50;64.90;;;;;;1745127;82;21153;-79
2021/04/22 10:56:28;;;;;;;16.45;11.00;;;16.50;64.40;;;;;;1741687;82;21212;-80
2021/04/22 10:58:57;;;;;;;14.80;9.40;;;16.40;63.40;;;;;;1743200;82;21690;-82
2021/04/22 11:01:36;;;;;;;13.08;9.08;;;16.30;64.00;;;;;;1743381;82;21149;-82
2021/04/22 11:04:08;;;;;;;13.65;9.85;;;16.30;62.30;;;;;;1738819;82;21121;-82
2021/04/22 11:06:43;;;;;;;15.93;10.30;;;16.20;62.30;;;;;;1733413;82;21137;-81
2021/04/22 11:09:21;;;;;;;14.80;9.45;;;16.20;62.10;;;;;;1739304;82;21098;-83
2021/04/22 11:11:57;;;;;;;14.78;9.23;;;16.20;61.50;;;;;;1717980;83;21666;-84
2021/04/22 11:14:42;;;;;;;15.00;9.80;;;16.20;63.00;;;;;;1721422;83;21118;-83
2021/04/22 11:17:11;;;;;;;14.83;10.88;;;16.40;63.60;;;;;;1717681;83;21545;-81
2021/04/22 11:19:43;;;;;;;16.40;10.75;;;16.40;63.30;;;;;;1721087;83;21137;-71
2021/04/22 11:22:21;;;;;;;16.40;10.28;;;16.40;64.40;;;;;;1717943;83;21129;-72
2021/04/22 11:24:57;;;;;;;16.50;11.30;;;16.50;63.70;;;;;;1717364;83;21129;-71
2021/04/22 11:27:28;;;;;;;22.75;11.03;;;16.60;63.50;;;;;;1721132;82;21276;-73
2021/04/22 11:30:05;;;;;;;15.32;9.68;;;16.60;65.60;;;;;;1720626;83;21241;-72
2021/04/22 11:32:40;;;;;;;15.60;9.93;;;16.60;62.40;;;;;;1718952;83;21133;-71
2021/04/22 11:35:16;;;;;;;13.13;8.95;;;16.50;63.10;;;;;;1717706;83;21109;-72
2021/04/22 11:37:49;;;;;;;15.08;8.60;;;16.50;61.50;;;;;;1717839;82;21572;-73
2021/04/22 11:40:29;;;;;;;12.70;8.78;;;16.60;62.60;;;;;;1718252;83;21600;-78
2021/04/22 11:42:57;;;;;;;12.95;7.87;;;16.60;58.90;;;;;;1717822;83;21280;-70
2021/04/22 11:45:29;;;;;;;13.90;8.65;;;16.50;59.70;;;;;;1719731;83;21140;-70
2021/04/22 11:48:03;;;;;;;12.63;8.20;;;16.50;58.70;;;;;;1716231;83;21159;-72
2021/04/22 11:50:45;;;;;;;12.50;8.47;;;16.60;58.90;;;;;;1719454;83;21577;-70
2021/04/22 11:53:14;;;;;;;10.65;7.17;;;16.70;59.00;;;;;;1721079;83;21146;-73
2021/04/22 11:55:50;;;;;;;8.30;5.45;;;16.70;57.70;;;;;;1716839;83;21179;-74
2021/04/22 11:58:21;;;;;;;;;;;16.60;56.40;;;;;;1715861;83;21175;-68
2021/04/22 12:00:59;;;;;;;8.60;5.87;;;16.70;56.50;;;;;;1673832;85;20428;-68
2021/04/22 12:03:34;;;;;;;7.55;4.90;;;16.70;57.90;;;;;;1715309;83;21587;-68
2021/04/22 12:06:09;;;;;;;7.83;4.80;;;16.70;58.10;;;;;;1715815;83;21132;-71
2021/04/22 12:08:44;;;;;;;9.20;4.70;;;16.80;55.80;;;;;;1709162;83;21196;-69
2021/04/22 12:11:19;;;;;;;5.50;4.07;;;16.80;56.00;;;;;;1711218;83;21154;-70
2021/04/22 12:13:49;;;;;;;7.33;4.50;;;17.00;53.70;;;;;;1711591;83;21124;-70
2021/04/22 12:16:18;;;;;;;9.53;4.28;;;17.00;53.50;;;;;;1715423;83;21148;-70
2021/04/22 12:18:48;;;;;;;7.17;4.12;;;17.10;53.70;;;;;;1715128;83;21153;-71
2021/04/22 12:21:25;;;;;;;7.33;5.00;;;17.10;53.50;;;;;;1720102;83;21158;-70
2021/04/22 12:24:00;;;;;;;11.22;5.62;;;17.20;55.10;;;;;;1719967;83;21544;-68
2021/04/22 12:26:32;;;;;;;10.75;5.90;;;17.20;55.60;;;;;;1718586;83;21138;-69
2021/04/22 12:29:05;;;;;;;9.08;5.90;;;17.30;55.90;;;;;;1720801;83;21125;-70
2021/04/22 12:31:42;;;;;;;10.72;6.85;;;17.40;54.70;;;;;;1716638;83;21559;-69
2021/04/22 12:34:18;;;;;;;13.98;5.83;;;17.40;54.70;;;;;;1716581;83;21157;-69
2021/04/22 12:37:00;;;;;;;9.40;5.60;;;17.30;53.40;;;;;;1716970;83;21129;-69
2021/04/22 12:39:42;;;;;;;9.05;5.40;;;17.20;54.20;;;;;;1719930;83;21137;-70
2021/04/22 12:42:23;;;;;;;6.12;4.30;;;17.20;53.00;;;;;;1720787;83;21114;-71
2021/04/22 12:45:02;;;;;;;8.13;4.60;;;17.20;53.40;;;;;;1722321;82;21118;-73
2021/04/22 12:47:44;;;;;;;7.58;4.62;;;17.20;55.40;;;;;;1720401;83;21718;-73
2021/04/22 12:50:32;;;;;;;6.47;4.20;;;17.20;52.70;;;;;;1719352;83;21129;-73
2021/04/22 12:53:05;;;;;;;7.05;4.58;;;17.40;54.00;;;;;;1720059;83;21142;-74